Time;durP1;ratioP1;P1;durP2;ratioP2;P2;SDS_P1;SDS_P2;PMS_P1;PMS_P2;Temp;Humidity;BMP_temperature;BMP_pressure;BME280_temperature;BME280_humidity;BME280_pressure;Samples;Min_cycle;Max_cycle;Signal;HPM_P1;HPM_P2
2022/08/14 00:00:01;;;;;;;19.40;11.55;;;;;;;22.17;48.06;101019.53;5014929;28;20025;-61
2022/08/14 00:02:27;;;;;;;20.05;12.02;;;;;;;22.14;48.23;101012.66;5014627;28;20032;-60
2022/08/14 00:04:52;;;;;;;19.85;11.68;;;;;;;22.07;48.38;101010.53;5014481;28;20022;-60
2022/08/14 00:07:18;;;;;;;19.27;11.80;;;;;;;22.03;48.71;101018.16;5014272;28;20087;-60
2022/08/14 00:09:44;;;;;;;18.98;11.88;;;;;;;21.93;48.73;101005.53;5014180;28;20065;-61
2022/08/14 00:12:09;;;;;;;19.88;11.73;;;;;;;21.94;49.02;101007.16;5014078;28;20496;-60
2022/08/14 00:14:35;;;;;;;19.58;11.65;;;;;;;21.94;48.92;101003.53;5013333;28;20026;-60
2022/08/14 00:17:00;;;;;;;19.23;11.73;;;;;;;21.83;49.46;100997.75;5014417;28;20109;-59
2022/08/14 00:19:26;;;;;;;19.55;11.35;;;;;;;21.76;49.12;100987.22;5014281;28;20037;-59
2022/08/14 00:21:51;;;;;;;20.10;12.10;;;;;;;21.70;49.92;100997.16;5013946;28;20026;-59
2022/08/14 00:24:21;;;;;;;19.90;11.70;;;;;;;21.67;49.94;100997.94;5014114;28;20029;-59
2022/08/14 00:26:46;;;;;;;19.33;11.77;;;;;;;21.58;50.21;100991.72;5014004;28;20033;-59
2022/08/14 00:29:12;;;;;;;19.40;11.73;;;;;;;21.57;50.29;100985.25;5013934;28;20026;-59
2022/08/14 00:31:37;;;;;;;21.55;11.90;;;;;;;21.51;50.41;100987.59;5014271;28;20041;-59
2022/08/14 00:34:03;;;;;;;21.38;12.50;;;;;;;21.53;50.39;100978.78;5012410;28;20029;-60
2022/08/14 00:36:28;;;;;;;19.08;12.20;;;;;;;21.49;50.28;100980.72;5014054;28;20033;-60
2022/08/14 00:38:54;;;;;;;20.23;12.23;;;;;;;21.50;50.39;100980.34;5013717;28;20022;-60
2022/08/14 00:41:19;;;;;;;19.35;11.85;;;;;;;21.39;51.09;100962.50;5013624;28;20026;-60
2022/08/14 00:43:45;;;;;;;20.48;12.45;;;;;;;21.35;51.01;100968.03;5013840;28;20484;-61
2022/08/14 00:46:11;;;;;;;21.00;13.23;;;;;;;21.30;51.53;100965.56;5013714;28;20026;-60
2022/08/14 00:48:37;;;;;;;19.30;12.20;;;;;;;21.26;51.68;100966.69;5012946;28;20513;-60
2022/08/14 00:51:06;;;;;;;18.92;12.18;;;;;;;21.15;51.49;100946.84;4994900;28;20029;-60
2022/08/14 00:53:32;;;;;;;19.73;12.25;;;;;;;21.13;52.07;100966.09;5012275;28;20034;-60
2022/08/14 00:55:57;;;;;;;21.75;13.13;;;;;;;21.13;51.54;100954.81;5012498;28;20037;-60
2022/08/14 00:58:29;;;;;;;21.27;13.05;;;;;;;21.10;51.86;100961.19;5012181;28;20029;-60
2022/08/14 01:00:55;;;;;;;21.63;12.82;;;;;;;21.07;52.28;100961.94;5012404;28;20045;-60
2022/08/14 01:03:21;;;;;;;22.00;12.77;;;;;;;20.99;52.62;100956.19;5012405;28;20034;-60
2022/08/14 01:05:49;;;;;;;19.40;12.07;;;;;;;20.96;52.70;100954.16;5012550;28;20025;-60
2022/08/14 01:08:20;;;;;;;20.77;12.73;;;;;;;21.00;52.16;100948.59;4994539;28;20455;-60
2022/08/14 01:10:50;;;;;;;22.67;12.60;;;;;;;20.97;52.63;100950.13;5012606;28;20037;-60
2022/08/14 01:13:20;;;;;;;21.27;13.25;;;;;;;20.92;52.85;100939.22;5012418;28;20026;-59
2022/08/14 01:15:47;;;;;;;21.48;12.80;;;;;;;20.82;53.04;100940.66;5012607;28;20132;-60
2022/08/14 01:21:08;;;;;;;20.38;12.48;;;;;;;20.79;52.88;100929.31;5012358;28;20041;-60
2022/08/14 01:23:39;;;;;;;20.95;12.38;;;;;;;20.70;52.98;100918.31;5012400;28;20416;-60
2022/08/14 01:26:06;;;;;;;20.75;12.20;;;;;;;20.74;53.19;100930.44;5012468;28;20030;-59
2022/08/14 01:28:36;;;;;;;20.42;12.60;;;;;;;20.67;53.38;100919.88;5011985;28;20044;-60
2022/08/14 01:31:14;;;;;;;20.50;12.80;;;;;;;20.69;53.27;100919.50;5012205;28;20116;-59
2022/08/14 01:33:44;;;;;;;20.33;12.38;;;;;;;20.67;53.34;100924.69;5012370;28;20089;-59
2022/08/14 01:36:10;;;;;;;19.90;12.80;;;;;;;20.65;53.38;100918.59;5012169;28;20030;-60
2022/08/14 01:38:37;;;;;;;20.98;12.52;;;;;;;20.62;53.46;100919.38;5011634;28;20030;-61
2022/08/14 01:41:06;;;;;;;18.98;12.38;;;;;;;20.55;53.53;100914.44;5011487;28;20018;-60
2022/08/14 01:43:37;;;;;;;20.48;12.00;;;;;;;20.53;53.88;100916.78;5011656;28;20109;-60
2022/08/14 01:46:05;;;;;;;22.40;12.45;;;;;;;20.51;53.60;100920.00;5012012;28;20053;-60
2022/08/14 01:48:32;;;;;;;20.58;12.98;;;;;;;20.46;53.88;100914.66;4975619;28;1041267;-60
2022/08/14 01:51:00;;;;;;;19.90;12.10;;;;;;;20.40;54.11;100907.72;5013295;28;20114;-60
2022/08/14 01:53:27;;;;;;;21.02;12.63;;;;;;;20.36;54.23;100916.09;5012379;28;20038;-60
2022/08/14 01:55:56;;;;;;;21.25;12.82;;;;;;;20.34;54.12;100921.25;5012930;28;20022;-58
2022/08/14 01:58:24;;;;;;;19.35;12.00;;;;;;;20.33;54.26;100918.84;5012513;28;20061;-60
2022/08/14 02:00:53;;;;;;;20.80;12.75;;;;;;;20.26;54.54;100925.13;5012719;28;20037;-59
2022/08/14 02:03:18;;;;;;;20.60;13.70;;;;;;;20.19;54.87;100922.19;5012456;28;20032;-59
2022/08/14 02:05:44;;;;;;;20.63;12.90;;;;;;;20.19;54.81;100925.00;5012732;28;20025;-59
2022/08/14 02:08:09;;;;;;;20.88;12.80;;;;;;;20.14;55.35;100923.28;5012249;28;20026;-59
2022/08/14 02:10:34;;;;;;;20.45;12.80;;;;;;;20.04;55.66;100919.06;5012444;28;20032;-60
2022/08/14 02:13:06;;;;;;;20.40;13.18;;;;;;;19.98;56.00;100916.94;5012566;28;20033;-59
2022/08/14 02:15:32;;;;;;;22.10;13.07;;;;;;;19.85;56.19;100910.59;5012075;28;20056;-59
2022/08/14 02:18:00;;;;;;;20.92;13.30;;;;;;;19.83;56.13;100910.19;5011899;28;20474;-59
2022/08/14 02:20:25;;;;;;;19.92;12.32;;;;;;;19.82;56.45;100916.97;5010591;28;20507;-59
2022/08/14 02:22:52;;;;;;;21.67;13.48;;;;;;;19.79;56.15;100922.13;5012217;28;20030;-59
2022/08/14 02:25:18;;;;;;;21.92;13.80;;;;;;;19.77;56.25;100918.06;5012259;28;20030;-59
2022/08/14 02:27:44;;;;;;;21.35;13.55;;;;;;;19.71;56.48;100916.72;5011978;28;20049;-59
2022/08/14 02:30:11;;;;;;;21.33;13.73;;;;;;;19.69;56.27;100917.09;5011249;28;20036;-59
2022/08/14 02:32:36;;;;;;;20.50;13.15;;;;;;;19.64;56.75;100917.41;5011866;28;20061;-59
2022/08/14 02:35:17;;;;;;;21.00;13.52;;;;;;;19.50;57.46;100909.47;5011925;28;20041;-58
2022/08/14 02:37:43;;;;;;;20.98;13.80;;;;;;;19.39;57.94;100908.41;5012265;28;20108;-59
2022/08/14 02:40:11;;;;;;;23.42;13.75;;;;;;;19.36;57.99;100901.53;5012131;28;20041;-60
2022/08/14 02:42:36;;;;;;;21.77;13.68;;;;;;;19.35;57.81;100899.91;5012315;28;20061;-59
2022/08/14 02:45:01;;;;;;;21.05;14.48;;;;;;;19.37;57.78;100905.16;5012172;28;20073;-60
2022/08/14 02:47:27;;;;;;;20.77;13.65;;;;;;;19.27;58.36;100904.53;5011970;28;20061;-59
2022/08/14 02:49:53;;;;;;;20.65;13.63;;;;;;;19.15;59.08;100899.03;5011973;28;20351;-60
2022/08/14 02:52:18;;;;;;;22.25;14.15;;;;;;;19.08;59.10;100908.06;5012066;28;20030;-60
2022/08/14 02:54:44;;;;;;;20.52;13.65;;;;;;;19.06;59.00;100901.22;5012189;28;20026;-60
2022/08/14 02:57:11;;;;;;;21.42;13.68;;;;;;;19.07;58.28;100902.84;5012537;28;20064;-59
2022/08/14 02:59:38;;;;;;;21.52;14.02;;;;;;;19.02;59.36;100901.13;5010433;28;20033;-59
2022/08/14 03:02:04;;;;;;;21.67;14.70;;;;;;;18.96;59.85;100894.19;5011659;28;20112;-60
2022/08/14 03:04:29;;;;;;;22.67;14.20;;;;;;;18.94;59.77;100894.50;5011923;28;20437;-60
2022/08/14 03:06:55;;;;;;;21.92;14.38;;;;;;;18.94;59.27;100893.72;5012031;28;20494;-59
2022/08/14 03:09:21;;;;;;;21.92;14.20;;;;;;;18.95;58.98;100900.94;5011801;28;20049;-59
2022/08/14 03:11:46;;;;;;;21.45;14.95;;;;;;;18.82;60.66;100892.59;5012147;28;20022;-60
2022/08/14 03:14:12;;;;;;;22.98;15.15;;;;;;;18.72;60.71;100887.53;5011506;28;20389;-59
2022/08/14 03:16:40;;;;;;;21.70;14.73;;;;;;;18.56;61.13;100879.13;5011830;28;20062;-60
2022/08/14 03:19:07;;;;;;;22.52;14.88;;;;;;;18.51;61.30;100879.38;5011783;28;20029;-59
2022/08/14 03:21:35;;;;;;;22.23;15.85;;;;;;;18.49;62.00;100890.97;5011876;28;20033;-60
2022/08/14 03:24:12;;;;;;;24.50;18.85;;;;;;;18.37;62.30;100885.44;4994283;28;20076;-60
2022/08/14 03:26:43;;;;;;;25.88;18.88;;;;;;;18.18;62.91;100864.53;5011932;28;20088;-59
2022/08/14 03:29:12;;;;;;;22.50;15.80;;;;;;;18.26;62.27;100878.72;5011774;28;20104;-59
2022/08/14 03:31:39;;;;;;;22.38;15.25;;;;;;;18.30;61.95;100880.44;5011629;28;20030;-60
2022/08/14 03:34:07;;;;;;;22.13;14.90;;;;;;;18.36;61.52;100879.03;5011826;28;20060;-60
2022/08/14 03:36:32;;;;;;;22.33;15.32;;;;;;;18.41;61.40;100875.16;5011580;28;20026;-60
2022/08/14 03:38:58;;;;;;;21.70;15.05;;;;;;;18.37;62.04;100875.03;5011581;28;20389;-60
2022/08/14 03:41:26;;;;;;;22.45;16.50;;;;;;;18.36;61.96;100876.22;5011970;28;20030;-58
2022/08/14 03:43:57;;;;;;;23.67;16.52;;;;;;;18.30;61.80;100863.63;5014921;28;20037;-59
2022/08/14 03:46:28;;;;;;;22.85;16.15;;;;;;;18.27;62.61;100869.97;5014911;28;20028;-59
2022/08/14 03:48:54;;;;;;;22.52;16.63;;;;;;;18.16;63.48;100869.66;5015064;28;20042;-59
2022/08/14 03:51:21;;;;;;;24.40;17.55;;;;;;;18.03;63.91;100870.91;5014677;28;20104;-60
2022/08/14 03:53:47;;;;;;;25.20;16.98;;;;;;;17.96;64.32;100870.66;5014761;28;20029;-60
2022/08/14 03:56:15;;;;;;;22.60;16.23;;;;;;;17.91;63.58;100858.56;5015026;28;20037;-59
2022/08/14 03:58:45;;;;;;;24.45;17.02;;;;;;;17.97;63.57;100872.31;5014269;28;20170;-60
2022/08/14 04:01:12;;;;;;;25.67;17.05;;;;;;;17.90;64.44;100870.13;5014493;28;20435;-60
2022/08/14 04:03:38;;;;;;;24.05;15.90;;;;;;;17.92;64.51;100870.56;5014878;28;20026;-59
2022/08/14 04:06:04;;;;;;;22.17;16.15;;;;;;;17.91;64.30;100868.94;5014834;28;20477;-60
2022/08/14 04:08:34;;;;;;;24.27;16.88;;;;;;;17.85;64.95;100860.00;5014570;28;20465;-59
2022/08/14 04:11:00;;;;;;;25.50;16.13;;;;;;;17.87;64.54;100866.03;5014544;28;20053;-60
2022/08/14 04:13:25;;;;;;;24.00;16.83;;;;;;;17.88;64.75;100861.25;5012845;28;20528;-59
2022/08/14 04:15:50;;;;;;;23.80;17.42;;;;;;;17.89;64.54;100872.09;4996464;28;20034;-59
2022/08/14 04:18:16;;;;;;;25.10;18.25;;;;;;;17.90;64.59;100862.53;5014486;28;20021;-59
2022/08/14 04:20:41;;;;;;;24.13;17.10;;;;;;;17.91;64.18;100864.16;5014057;28;20036;-59
2022/08/14 04:23:08;;;;;;;23.92;17.08;;;;;;;17.89;64.50;100849.69;5014326;28;20454;-59
2022/08/14 04:25:35;;;;;;;24.27;17.30;;;;;;;17.87;64.63;100860.44;5013745;28;20106;-59
2022/08/14 04:28:04;;;;;;;24.25;17.27;;;;;;;17.92;64.38;100860.19;4996072;28;20045;-59
2022/08/14 04:30:31;;;;;;;24.73;16.83;;;;;;;17.90;64.20;100861.72;5013979;28;20124;-59
2022/08/14 04:32:57;;;;;;;23.42;17.33;;;;;;;17.89;64.91;100862.91;5013793;28;20120;-59
2022/08/14 04:35:23;;;;;;;24.63;17.33;;;;;;;17.91;64.22;100850.16;5014079;28;20048;-60
2022/08/14 04:43:35;;;;;;;24.58;18.65;;;;;;;17.80;65.79;100845.44;5013997;28;20401;-60
2022/08/14 04:46:04;;;;;;;26.00;19.05;;;;;;;17.72;66.21;100845.22;5013991;28;20030;-59
2022/08/14 04:48:29;;;;;;;23.88;18.15;;;;;;;17.64;66.36;100834.19;5013607;28;20054;-59
2022/08/14 04:50:55;;;;;;;24.25;18.05;;;;;;;17.64;66.70;100836.97;5013724;28;20084;-59
2022/08/14 04:53:27;;;;;;;23.98;17.40;;;;;;;17.66;66.51;100843.03;5012506;28;20419;-59
2022/08/14 04:55:52;;;;;;;25.42;18.13;;;;;;;17.66;66.70;100841.03;5013790;28;20030;-59
2022/08/14 04:58:21;;;;;;;24.30;16.92;;;;;;;17.65;66.41;100833.03;4995619;28;20060;-59
2022/08/14 05:00:49;;;;;;;26.58;17.90;;;;;;;17.70;66.04;100830.78;5013524;28;20022;-59
2022/08/14 05:03:16;;;;;;;24.23;18.15;;;;;;;17.79;66.02;100833.41;5013591;28;20045;-59
2022/08/14 05:05:41;;;;;;;27.17;18.60;;;;;;;17.84;66.25;100833.19;5013730;28;20382;-59
2022/08/14 05:08:11;;;;;;;25.90;18.35;;;;;;;17.81;66.04;100817.09;5013641;28;20026;-59
2022/08/14 05:10:42;;;;;;;25.05;17.98;;;;;;;17.87;66.30;100824.06;5013710;28;20113;-59
2022/08/14 05:13:08;;;;;;;25.00;17.83;;;;;;;17.90;66.35;100822.53;5013719;28;20034;-59
2022/08/14 05:15:37;;;;;;;26.08;19.13;;;;;;;17.90;66.55;100828.13;5013407;28;20041;-59
2022/08/14 05:18:11;;;;;;;26.85;19.38;;;;;;;17.97;66.44;100819.13;5013286;28;20022;-59
2022/08/14 05:20:37;;;;;;;26.75;19.20;;;;;;;18.01;66.13;100828.47;5013317;28;20036;-59
2022/08/14 05:23:02;;;;;;;24.60;18.35;;;;;;;18.09;65.80;100825.47;5013121;28;20030;-58
2022/08/14 05:25:28;;;;;;;26.98;19.08;;;;;;;18.14;66.09;100829.22;5012942;28;20488;-58
2022/08/14 05:27:59;;;;;;;24.95;18.30;;;;;;;18.19;65.95;100829.75;5012963;28;20030;-58
2022/08/14 05:30:25;;;;;;;25.05;18.85;;;;;;;18.25;66.41;100827.50;5013290;28;20109;-59
2022/08/14 05:32:50;;;;;;;27.85;19.23;;;;;;;18.25;66.16;100824.72;5013115;28;20449;-59
2022/08/14 05:35:15;;;;;;;26.35;18.92;;;;;;;18.30;65.95;100824.44;5013292;28;20033;-58
2022/08/14 05:37:41;;;;;;;25.73;19.60;;;;;;;18.38;65.62;100820.66;5012614;28;20125;-59
2022/08/14 05:40:09;;;;;;;25.60;19.48;;;;;;;18.41;65.75;100824.72;5012920;28;20148;-60
2022/08/14 05:42:34;;;;;;;27.02;19.42;;;;;;;18.52;64.95;100823.00;5012914;28;20026;-59
2022/08/14 05:45:00;;;;;;;24.60;17.80;;;;;;;18.62;65.40;100815.22;5012754;28;20033;-58
2022/08/14 05:47:25;;;;;;;25.52;19.05;;;;;;;18.71;64.98;100819.47;5012650;28;20052;-59
2022/08/14 05:49:50;;;;;;;26.90;19.20;;;;;;;18.81;64.37;100820.09;5012436;28;20128;-59
2022/08/14 05:52:15;;;;;;;26.00;19.13;;;;;;;18.86;64.58;100826.25;5013124;28;20243;-59
2022/08/14 05:54:41;;;;;;;26.48;19.50;;;;;;;18.91;64.80;100816.75;5011328;28;20022;-59
2022/08/14 05:57:06;;;;;;;26.50;19.67;;;;;;;18.98;65.00;100819.75;5012656;28;20198;-59
2022/08/14 05:59:32;;;;;;;26.45;20.35;;;;;;;18.95;65.21;100820.47;4995007;28;20092;-60
2022/08/14 06:01:57;;;;;;;26.58;20.58;;;;;;;19.02;64.83;100811.41;5012442;28;20454;-59
2022/08/14 06:04:22;;;;;;;25.92;20.15;;;;;;;19.05;65.09;100818.28;5012579;28;20106;-59
2022/08/14 06:06:47;;;;;;;27.17;21.02;;;;;;;19.09;65.08;100817.19;5012630;28;20043;-59
2022/08/14 06:09:13;;;;;;;27.67;20.45;;;;;;;19.19;65.01;100818.63;5012288;28;20034;-59
2022/08/14 06:11:38;;;;;;;26.75;20.63;;;;;;;19.26;65.28;100827.19;5012658;28;20470;-59
2022/08/14 06:14:03;;;;;;;25.88;20.63;;;;;;;19.30;64.74;100807.63;5010883;28;20064;-59
2022/08/14 06:16:29;;;;;;;26.63;20.70;;;;;;;19.49;64.77;100820.88;5012230;28;20045;-59
2022/08/14 06:18:54;;;;;;;27.17;20.73;;;;;;;19.59;64.47;100819.47;5012330;28;20017;-59
2022/08/14 06:21:21;;;;;;;29.15;23.27;;;;;;;19.68;64.77;100822.84;5012178;28;20030;-59
2022/08/14 06:23:46;;;;;;;27.67;21.90;;;;;;;19.79;64.38;100821.09;5012507;28;20034;-59
2022/08/14 06:26:11;;;;;;;26.83;20.88;;;;;;;19.94;63.95;100813.78;5012366;28;20018;-58
2022/08/14 06:28:37;;;;;;;26.17;20.10;;;;;;;20.08;63.59;100812.41;4994359;28;20068;-59
2022/08/14 06:31:02;;;;;;;25.52;20.23;;;;;;;20.20;63.12;100803.84;5012332;28;20450;-59
2022/08/14 06:33:27;;;;;;;24.55;19.02;;;;;;;20.36;63.27;100811.31;5011919;28;20466;-59
2022/08/14 06:35:52;;;;;;;25.55;19.83;;;;;;;20.48;62.89;100801.91;5012293;28;20033;-59
2022/08/14 06:38:20;;;;;;;24.65;19.05;;;;;;;20.55;62.38;100793.59;5012798;28;20539;-59
2022/08/14 06:40:46;;;;;;;24.75;18.25;;;;;;;20.72;62.42;100807.13;5012326;28;20335;-59
2022/08/14 06:43:13;;;;;;;25.15;17.73;;;;;;;20.84;62.20;100806.13;5012509;28;20077;-59
2022/08/14 06:45:40;;;;;;;29.70;19.85;;;;;;;20.96;62.01;100795.84;5012178;28;20046;-59
2022/08/14 06:48:13;;;;;;;23.95;17.83;;;;;;;21.06;61.94;100800.84;5011977;28;20105;-59
2022/08/14 06:50:39;;;;;;;24.33;17.53;;;;;;;21.19;61.24;100793.78;5012880;28;20131;-59
2022/08/14 06:53:04;;;;;;;24.45;17.77;;;;;;;21.32;61.42;100794.38;5012781;28;20483;-59
2022/08/14 06:55:29;;;;;;;23.92;17.75;;;;;;;21.39;61.71;100790.84;5012368;28;20030;-60
2022/08/14 06:57:55;;;;;;;24.58;18.00;;;;;;;21.49;61.26;100795.78;5012273;28;20422;-60
2022/08/14 07:00:24;;;;;;;23.77;17.75;;;;;;;21.60;60.63;100783.88;5012505;28;20480;-59
2022/08/14 07:05:49;;;;;;;23.20;16.95;;;;;;;21.92;59.83;100789.06;5012997;28;20377;-58
2022/08/14 07:08:19;;;;;;;23.20;16.92;;;;;;;22.08;59.56;100778.38;5012577;28;20120;-59
2022/08/14 07:10:47;;;;;;;25.90;16.15;;;;;;;22.14;59.65;100767.56;5012185;28;20485;-59
2022/08/14 07:13:13;;;;;;;24.85;16.98;;;;;;;22.26;58.54;100781.38;5012326;28;20489;-59
2022/08/14 07:15:40;;;;;;;24.85;16.88;;;;;;;22.28;58.17;100775.31;5012378;28;20524;-59
2022/08/14 07:18:08;;;;;;;22.33;16.15;;;;;;;22.42;58.39;100780.31;5015404;28;20034;-58
2022/08/14 07:20:33;;;;;;;23.23;16.98;;;;;;;22.53;57.93;100781.22;5016234;28;20025;-60
2022/08/14 07:23:00;;;;;;;23.35;16.15;;;;;;;22.63;57.55;100778.88;5015456;28;20034;-60
2022/08/14 07:25:27;;;;;;;23.00;15.75;;;;;;;22.75;57.13;100775.75;5015872;28;20042;-60
2022/08/14 07:27:52;;;;;;;21.25;15.23;;;;;;;22.84;56.84;100781.03;5015784;28;20129;-59
2022/08/14 07:30:18;;;;;;;22.25;15.40;;;;;;;22.89;56.58;100770.19;5016051;28;20049;-59
2022/08/14 07:32:43;;;;;;;22.67;15.10;;;;;;;23.01;55.84;100771.06;5015787;28;20028;-58
2022/08/14 07:35:09;;;;;;;23.55;15.00;;;;;;;23.14;55.31;100780.00;5016216;28;20058;-58
2022/08/14 07:37:34;;;;;;;23.27;15.48;;;;;;;23.28;55.51;100782.13;5015677;28;20044;-58
2022/08/14 07:40:02;;;;;;;22.90;14.75;;;;;;;23.38;54.58;100786.22;5015636;28;20358;-59
2022/08/14 07:42:28;;;;;;;22.77;15.63;;;;;;;23.50;54.59;100774.56;5014915;28;20057;-59
2022/08/14 07:44:53;;;;;;;22.42;15.32;;;;;;;23.58;53.76;100778.22;5015620;28;20058;-59
2022/08/14 07:47:18;;;;;;;22.58;15.20;;;;;;;23.68;54.02;100764.13;5014909;28;20022;-59
2022/08/14 07:49:57;;;;;;;21.88;14.38;;;;;;;23.70;53.59;100757.28;5014823;28;20162;-59
2022/08/14 07:52:23;;;;;;;21.25;14.60;;;;;;;23.91;53.46;100768.63;5015283;28;20051;-59
2022/08/14 07:54:49;;;;;;;21.77;15.43;;;;;;;23.99;53.06;100766.66;5015342;28;20490;-60
2022/08/14 07:57:16;;;;;;;21.35;15.00;;;;;;;24.09;52.20;100765.06;5015246;28;20070;-59
2022/08/14 07:59:41;;;;;;;21.52;14.90;;;;;;;24.17;51.41;100769.50;5015373;28;20018;-59
2022/08/14 08:02:09;;;;;;;22.27;15.10;;;;;;;24.22;51.22;100771.13;5014687;28;20476;-59
2022/08/14 08:04:38;;;;;;;23.45;15.27;;;;;;;24.34;51.70;100773.56;5014918;28;20030;-59
2022/08/14 08:07:04;;;;;;;21.70;15.30;;;;;;;24.41;50.81;100765.06;5015138;28;20029;-58
2022/08/14 08:09:31;;;;;;;21.48;14.38;;;;;;;24.51;50.79;100773.97;5015103;28;20026;-60
2022/08/14 08:11:57;;;;;;;20.75;14.02;;;;;;;24.61;51.13;100775.97;5014661;28;20034;-60
2022/08/14 08:14:24;;;;;;;21.70;14.50;;;;;;;24.76;50.76;100774.75;5014801;28;20030;-60
2022/08/14 08:16:49;;;;;;;23.13;14.90;;;;;;;24.82;50.87;100772.34;5014593;28;20068;-60
2022/08/14 08:19:17;;;;;;;22.35;15.15;;;;;;;24.91;50.98;100774.75;5014701;28;20057;-60
2022/08/14 08:21:44;;;;;;;23.08;15.38;;;;;;;24.90;50.83;100761.81;5014699;28;20332;-59
2022/08/14 08:24:09;;;;;;;23.48;15.98;;;;;;;24.90;50.31;100765.44;5014694;28;20026;-59
2022/08/14 08:26:34;;;;;;;21.98;15.18;;;;;;;24.98;50.78;100766.25;5014479;28;20387;-59
2022/08/14 08:29:00;;;;;;;22.40;14.75;;;;;;;25.21;51.13;100765.78;5014180;28;20030;-60
2022/08/14 08:31:25;;;;;;;21.58;14.90;;;;;;;25.32;50.66;100770.59;5014357;28;20102;-58
2022/08/14 08:33:52;;;;;;;22.67;16.00;;;;;;;25.37;50.00;100759.66;5014295;28;20351;-59
2022/08/14 08:36:18;;;;;;;22.77;15.70;;;;;;;25.41;49.85;100751.16;5014317;28;20030;-59
2022/08/14 08:38:45;;;;;;;21.58;15.52;;;;;;;25.46;49.64;100758.44;5014505;28;20116;-62
2022/08/14 08:41:11;;;;;;;22.63;16.42;;;;;;;25.35;49.23;100752.78;4996736;28;20030;-60
2022/08/14 08:43:37;;;;;;;22.40;16.05;;;;;;;25.47;49.79;100748.72;5014914;28;20492;-59
2022/08/14 08:46:13;;;;;;;24.58;15.65;;;;;;;25.52;49.39;100749.09;5014142;28;20057;-59
2022/08/14 08:48:51;;;;;;;24.02;15.35;;;;;;;25.58;49.52;100748.66;5014199;28;20113;-59
2022/08/14 08:51:29;;;;;;;22.58;16.27;;;;;;;25.70;49.57;100760.31;5014268;28;20041;-59
2022/08/14 08:54:15;;;;;;;22.58;15.38;;;;;;;25.81;49.34;100757.44;5014311;28;20465;-60
2022/08/14 08:56:43;;;;;;;22.67;15.60;;;;;;;25.89;48.33;100752.50;5013594;28;20452;-60
2022/08/14 08:59:23;;;;;;;21.92;14.90;;;;;;;26.01;48.28;100760.53;5014127;28;20053;-60
2022/08/14 09:01:51;;;;;;;22.20;15.90;;;;;;;25.97;47.79;100744.78;5013499;28;20311;-60
2022/08/14 09:04:17;;;;;;;23.67;16.58;;;;;;;26.01;47.85;100754.88;5014283;28;20049;-60
2022/08/14 09:06:49;;;;;;;23.67;15.82;;;;;;;25.96;47.36;100731.81;5013923;28;20022;-59
2022/08/14 09:09:34;;;;;;;22.48;14.90;;;;;;;26.21;48.10;100737.34;5014252;28;20030;-61
2022/08/14 09:12:02;;;;;;;21.40;14.68;;;;;;;26.43;47.55;100742.84;5013692;28;20030;-59
2022/08/14 09:14:30;;;;;;;22.42;14.57;;;;;;;26.65;47.26;100745.44;5013662;28;20034;-59
2022/08/14 09:16:58;;;;;;;20.38;14.02;;;;;;;26.87;46.50;100748.94;5013383;28;20354;-59
2022/08/14 09:19:24;;;;;;;20.80;14.57;;;;;;;26.98;44.10;100743.13;5013646;28;20028;-59
2022/08/14 09:21:49;;;;;;;22.00;15.23;;;;;;;27.11;44.66;100734.84;5013726;28;20083;-59
2022/08/14 09:24:14;;;;;;;20.33;13.80;;;;;;;27.20;44.34;100730.28;5013200;28;20113;-59
2022/08/14 09:26:42;;;;;;;20.90;14.70;;;;;;;27.29;44.53;100726.13;5013102;28;20029;-60
2022/08/14 09:29:08;;;;;;;20.75;14.93;;;;;;;27.37;43.77;100727.66;5013038;28;20390;-60
2022/08/14 09:31:36;;;;;;;20.88;15.15;;;;;;;27.39;43.37;100736.56;5013144;28;20029;-60
2022/08/14 09:34:19;;;;;;;22.88;15.18;;;;;;;27.37;44.74;100730.50;5013822;28;20076;-60
2022/08/14 09:36:44;;;;;;;;;;;;;;;27.46;45.81;100727.13;5014046;28;20033;-60
2022/08/14 09:39:24;;;;;;;22.93;16.07;;;;;;;27.45;45.35;100720.66;5012884;28;19909;-59
2022/08/14 09:42:15;;;;;;;22.45;16.27;;;;;;;27.42;45.71;100703.66;5011888;28;20106;-59
2022/08/14 09:45:07;;;;;;;22.02;14.73;;;;;;;27.64;44.91;100707.00;5013300;28;20022;-59
2022/08/14 09:47:49;;;;;;;21.35;15.20;;;;;;;27.70;43.86;100711.78;5013333;28;20029;-59
2022/08/14 09:50:15;;;;;;;21.13;13.52;;;;;;;27.80;43.49;100706.38;5013490;28;20111;-59
2022/08/14 09:52:55;;;;;;;20.70;12.90;;;;;;;27.97;42.94;100695.94;5013115;28;20042;-60
2022/08/14 09:55:23;;;;;;;20.80;13.43;;;;;;;28.05;42.94;100702.31;5012938;28;20127;-59
2022/08/14 09:57:51;;;;;;;20.98;13.82;;;;;;;28.16;42.50;100697.28;5013086;28;20459;-60
2022/08/14 10:00:21;;;;;;;21.60;13.15;;;;;;;28.35;42.01;100692.88;5013098;28;20041;-59
2022/08/14 10:03:01;;;;;;;20.45;13.07;;;;;;;28.54;41.90;100684.81;5012869;28;20076;-58
2022/08/14 10:05:30;;;;;;;21.58;13.65;;;;;;;28.59;41.68;100684.34;5013086;28;20029;-59
2022/08/14 10:07:56;;;;;;;21.02;13.52;;;;;;;28.69;41.10;100679.66;5012935;28;20068;-59
2022/08/14 10:10:27;;;;;;;20.55;13.73;;;;;;;28.77;41.83;100681.97;5012892;28;20069;-59
2022/08/14 10:12:54;;;;;;;21.38;13.60;;;;;;;28.84;41.72;100672.50;5012567;28;20046;-59
2022/08/14 10:15:21;;;;;;;20.90;13.93;;;;;;;28.92;40.61;100676.81;5012891;28;20022;-59
2022/08/14 10:17:48;;;;;;;20.38;13.93;;;;;;;28.79;41.75;100667.31;5012681;28;20096;-59
2022/08/14 10:20:19;;;;;;;19.48;13.18;;;;;;;28.87;41.36;100662.28;5012389;28;20087;-59
2022/08/14 10:22:45;;;;;;;20.08;13.43;;;;;;;28.87;40.28;100671.59;5012412;28;20018;-59
2022/08/14 10:25:16;;;;;;;21.73;13.60;;;;;;;28.95;40.11;100670.22;5012128;28;20433;-59
2022/08/14 10:27:45;;;;;;;21.10;12.98;;;;;;;29.11;39.41;100657.28;5012852;28;20026;-59
2022/08/14 10:30:16;;;;;;;20.20;13.40;;;;;;;29.19;38.54;100649.41;5012538;28;20088;-59
2022/08/14 10:32:47;;;;;;;19.52;12.25;;;;;;;29.33;38.78;100654.00;5011851;28;20048;-59
2022/08/14 10:35:13;;;;;;;19.27;12.07;;;;;;;29.47;38.81;100653.66;5012367;28;20030;-59
2022/08/14 10:37:42;;;;;;;19.00;12.10;;;;;;;29.42;38.29;100651.34;5012256;28;20022;-59
2022/08/14 10:40:08;;;;;;;20.58;12.52;;;;;;;29.37;38.47;100640.47;5010906;28;20036;-59
2022/08/14 10:42:36;;;;;;;18.95;11.73;;;;;;;29.39;37.73;100649.38;5012260;28;20098;-59
2022/08/14 10:45:01;;;;;;;19.88;12.27;;;;;;;29.48;38.15;100634.50;5012057;28;20115;-59
2022/08/14 10:47:35;;;;;;;19.63;12.30;;;;;;;29.64;38.77;100633.72;4994148;28;20089;-59
2022/08/14 10:50:02;;;;;;;19.10;12.02;;;;;;;29.77;38.07;100630.97;4994099;28;20152;-60
2022/08/14 10:52:31;;;;;;;18.98;12.65;;;;;;;29.81;36.91;100626.00;5014440;28;20517;-60
2022/08/14 10:55:14;;;;;;;18.27;11.48;;;;;;;29.96;37.55;100621.53;5016130;28;20029;-60
2022/08/14 10:57:51;;;;;;;20.02;11.45;;;;;;;30.02;36.80;100628.34;5016086;28;20030;-61
2022/08/14 11:00:19;;;;;;;21.05;11.50;;;;;;;30.13;36.98;100618.69;5016281;28;20032;-61
2022/08/14 11:03:00;;;;;;;20.02;11.40;;;;;;;30.19;35.14;100626.25;5016144;28;20022;-60
2022/08/14 11:05:26;;;;;;;18.42;11.30;;;;;;;30.25;35.12;100622.84;5015758;28;20034;-61
2022/08/14 11:07:54;;;;;;;17.42;10.93;;;;;;;30.28;35.42;100619.91;5015939;28;20434;-60
2022/08/14 11:10:22;;;;;;;18.70;11.25;;;;;;;30.25;34.98;100597.97;5016037;28;20108;-61
2022/08/14 11:12:54;;;;;;;19.15;11.60;;;;;;;30.32;35.25;100606.31;5015804;28;20104;-63
2022/08/14 11:15:22;;;;;;;18.40;11.13;;;;;;;30.50;34.91;100610.75;5016261;28;20086;-61
2022/08/14 11:17:50;;;;;;;18.08;11.45;;;;;;;30.58;34.12;100615.03;5015494;28;20026;-60
2022/08/14 11:20:18;;;;;;;18.20;10.60;;;;;;;30.63;33.54;100611.59;5015844;28;20025;-60
2022/08/14 11:22:44;;;;;;;18.45;10.70;;;;;;;30.88;34.02;100624.38;4997637;28;20040;-61